Time;durP1;ratioP1;P1;durP2;ratioP2;P2;SDS_P1;SDS_P2;PMS_P1;PMS_P2;Temp;Humidity;BMP_temperature;BMP_pressure;BME280_temperature;BME280_humidity;BME280_pressure;Samples;Min_cycle;Max_cycle;Signal;HPM_P1;HPM_P2
2023/01/04 00:01:07;;;;;;;8.38;6.90;;;8.10;99.90;;;;;;5133932;27;20230;-79
2023/01/04 00:03:38;;;;;;;7.03;6.32;;;8.20;99.90;;;;;;5125711;27;20222;-78
2023/01/04 00:06:15;;;;;;;9.85;6.15;;;8.20;99.90;;;;;;5120838;27;20290;-78
2023/01/04 00:08:45;;;;;;;6.78;5.75;;;8.10;99.90;;;;;;5131211;27;20229;-78
2023/01/04 00:11:17;;;;;;;8.30;7.55;;;8.20;99.90;;;;;;5132484;27;20305;-77
2023/01/04 00:13:44;;;;;;;5.75;5.22;;;8.20;99.90;;;;;;5118411;27;20236;-79
2023/01/04 00:16:19;;;;;;;6.57;5.95;;;8.10;99.90;;;;;;5122606;27;20217;-79
2023/01/04 00:18:50;;;;;;;6.10;5.60;;;8.20;99.90;;;;;;5124383;27;20214;-79
2023/01/04 00:21:20;;;;;;;6.78;6.18;;;8.20;99.90;;;;;;5130536;27;20747;-80
2023/01/04 00:23:50;;;;;;;6.07;5.57;;;8.10;99.90;;;;;;5110672;27;20219;-79
2023/01/04 00:26:20;;;;;;;6.72;6.07;;;8.20;99.90;;;;;;5119949;27;20499;-79
2023/01/04 00:28:47;;;;;;;7.70;5.97;;;8.20;99.90;;;;;;5127039;27;20296;-78
2023/01/04 00:31:28;;;;;;;6.35;5.47;;;8.20;99.90;;;;;;5117711;27;20249;-79
2023/01/04 00:33:57;;;;;;;5.63;5.13;;;8.10;99.90;;;;;;5114404;27;20263;-79
2023/01/04 00:36:25;;;;;;;7.63;5.53;;;8.10;99.90;;;;;;5120428;27;20221;-79
2023/01/04 00:39:13;;;;;;;6.22;5.30;;;8.10;99.90;;;;;;5114480;27;20625;-79
2023/01/04 00:41:42;;;;;;;5.88;5.28;;;8.10;99.90;;;;;;5114645;27;20249;-79
2023/01/04 00:44:12;;;;;;;6.10;5.50;;;8.10;99.90;;;;;;5126083;27;20720;-79
2023/01/04 00:46:41;;;;;;;8.63;6.35;;;8.10;99.90;;;;;;5111398;27;20250;-78
2023/01/04 00:49:11;;;;;;;6.00;5.50;;;8.10;99.90;;;;;;5107655;27;20301;-78
2023/01/04 00:51:47;;;;;;;6.57;5.97;;;8.10;99.90;;;;;;5113757;27;20279;-79
2023/01/04 00:54:16;;;;;;;6.40;5.80;;;8.10;99.90;;;;;;5126195;27;20595;-79
2023/01/04 00:56:43;;;;;;;6.18;5.68;;;8.10;99.90;;;;;;5119984;27;20309;-79
2023/01/04 00:59:17;;;;;;;7.90;5.32;;;8.10;99.90;;;;;;5118443;27;20238;-78
2023/01/04 01:01:48;;;;;;;6.63;5.28;;;8.10;99.90;;;;;;5115917;27;20735;-79
2023/01/04 01:04:18;;;;;;;6.57;5.97;;;8.00;99.90;;;;;;5122492;27;20230;-79
2023/01/04 01:06:45;;;;;;;6.50;5.90;;;8.00;99.90;;;;;;5128479;27;20230;-79
2023/01/04 01:09:13;;;;;;;7.20;5.25;;;7.90;99.90;;;;;;5132945;27;20291;-79
2023/01/04 01:11:40;;;;;;;5.80;5.22;;;7.90;99.90;;;;;;5117741;27;20226;-79
2023/01/04 01:14:10;;;;;;;6.40;5.30;;;8.00;99.90;;;;;;5123760;27;20222;-78
2023/01/04 01:16:38;;;;;;;7.65;6.53;;;8.00;99.90;;;;;;5122479;27;20222;-78
2023/01/04 01:19:15;;;;;;;6.50;4.78;;;8.00;99.90;;;;;;5124401;27;20254;-79
2023/01/04 01:21:52;;;;;;;4.85;4.40;;;7.90;99.90;;;;;;5117738;27;20230;-80
2023/01/04 01:24:22;;;;;;;5.95;4.70;;;7.90;99.90;;;;;;5124323;27;20580;-80
2023/01/04 01:26:49;;;;;;;5.72;5.15;;;7.80;99.90;;;;;;5115546;27;20233;-78
2023/01/04 01:29:19;;;;;;;6.70;5.25;;;7.90;99.90;;;;;;5124733;27;20222;-78
2023/01/04 01:31:49;;;;;;;5.60;5.10;;;7.90;99.90;;;;;;5119190;27;20241;-78
2023/01/04 01:34:20;;;;;;;5.95;5.38;;;7.90;99.90;;;;;;5125996;27;20601;-78
2023/01/04 01:36:48;;;;;;;5.10;4.70;;;7.80;99.90;;;;;;5129785;27;20290;-78
2023/01/04 01:39:17;;;;;;;6.78;6.10;;;7.90;99.90;;;;;;5124401;27;20269;-80
2023/01/04 01:41:44;;;;;;;5.50;5.00;;;7.90;99.90;;;;;;5125905;27;20222;-78
2023/01/04 01:44:56;;;;;;;5.22;4.72;;;7.90;99.90;;;;;;5115051;27;20256;-78
2023/01/04 01:47:28;;;;;;;4.50;4.20;;;8.00;99.90;;;;;;5083587;28;20235;-78
2023/01/04 01:50:00;;;;;;;6.80;5.05;;;8.00;99.90;;;;;;5118713;27;20317;-78
2023/01/04 01:52:32;;;;;;;5.07;4.60;;;8.00;99.90;;;;;;5122279;27;20321;-80
2023/01/04 01:55:06;;;;;;;7.05;5.57;;;8.00;99.90;;;;;;5128513;27;20225;-79
2023/01/04 01:57:36;;;;;;;5.32;4.82;;;8.00;99.90;;;;;;5124685;27;20297;-79
2023/01/04 02:00:11;;;;;;;4.50;4.10;;;8.00;99.90;;;;;;5098955;28;20238;-79
2023/01/04 02:02:45;;;;;;;7.07;5.72;;;8.10;99.90;;;;;;5131066;27;20228;-79
2023/01/04 02:05:14;;;;;;;4.68;4.25;;;8.10;99.90;;;;;;5123781;27;20739;-78
2023/01/04 02:07:46;;;;;;;4.78;4.45;;;8.10;99.90;;;;;;5111949;28;20230;-76
2023/01/04 02:10:14;;;;;;;5.18;4.68;;;8.00;99.90;;;;;;5132579;27;20256;-78
2023/01/04 02:12:42;;;;;;;5.00;4.55;;;8.00;99.90;;;;;;5120359;27;20242;-80
2023/01/04 02:15:14;;;;;;;5.68;4.75;;;8.00;99.90;;;;;;5117730;27;20242;-77
2023/01/04 02:17:49;;;;;;;5.32;3.83;;;8.10;99.90;;;;;;5111998;27;20245;-78
2023/01/04 02:20:38;;;;;;;6.40;5.82;;;8.00;99.90;;;;;;5117155;28;20311;-78
2023/01/04 02:23:35;;;;;;;4.68;4.18;;;8.00;99.90;;;;;;5132583;27;20606;-78
2023/01/04 02:26:39;;;;;;;6.88;4.88;;;8.00;99.90;;;;;;5119044;27;20237;-77
2023/01/04 02:29:38;;;;;;;5.97;4.60;;;8.00;99.90;;;;;;5121408;27;20268;-78
2023/01/04 02:32:17;;;;;;;5.55;5.05;;;8.00;99.90;;;;;;5106422;27;20218;-77
2023/01/04 02:34:59;;;;;;;4.38;3.90;;;7.90;99.90;;;;;;5116800;27;20222;-77
2023/01/04 02:37:32;;;;;;;4.20;3.90;;;7.90;99.90;;;;;;5132694;28;20226;-78
2023/01/04 02:40:08;;;;;;;5.20;4.80;;;7.90;99.90;;;;;;5119831;27;20226;-78
2023/01/04 02:45:33;;;;;;;4.65;3.95;;;7.90;99.90;;;;;;5120708;27;20366;-77
2023/01/04 02:50:54;;;;;;;4.97;4.30;;;7.80;99.90;;;;;;5098161;28;20236;-79
2023/01/04 02:53:25;;;;;;;6.22;5.55;;;7.80;99.90;;;;;;5126876;27;20291;-78
2023/01/04 02:56:04;;;;;;;5.45;4.95;;;7.80;99.90;;;;;;5121464;27;20253;-78
2023/01/04 02:58:49;;;;;;;7.13;5.30;;;7.80;99.90;;;;;;5123198;27;20321;-79
2023/01/04 03:07:22;;;;;;;6.32;5.22;;;7.60;99.90;;;;;;5120302;27;20532;-79
2023/01/04 03:09:53;;;;;;;4.90;4.50;;;7.60;99.90;;;;;;5118595;27;20673;-77
2023/01/04 03:12:33;;;;;;;5.63;5.00;;;7.60;99.90;;;;;;5118428;27;20251;-78
2023/01/04 03:15:13;;;;;;;7.30;4.43;;;7.60;99.90;;;;;;5122087;27;20622;-76
2023/01/04 03:17:45;;;;;;;6.40;4.80;;;7.60;99.90;;;;;;5134653;27;20222;-78
2023/01/04 03:20:17;;;;;;;5.25;4.65;;;7.60;99.90;;;;;;5122529;27;20282;-78
2023/01/04 03:36:56;;;;;;;7.53;5.30;;;7.40;99.90;;;;;;5121131;27;20675;-78
2023/01/04 03:50:55;;;;;;;5.57;4.80;;;7.40;99.90;;;;;;5135730;27;20274;-76
2023/01/04 03:53:25;;;;;;;5.38;4.88;;;7.40;99.90;;;;;;5135866;27;20225;-79
2023/01/04 03:55:54;;;;;;;4.75;4.35;;;7.40;99.90;;;;;;5135290;27;20341;-80
2023/01/04 03:58:22;;;;;;;7.57;5.35;;;7.40;99.90;;;;;;5135655;27;20224;-78
2023/01/04 04:00:50;;;;;;;6.18;5.10;;;7.40;99.90;;;;;;5134368;27;20612;-78
2023/01/04 04:03:20;;;;;;;4.55;4.15;;;7.40;99.90;;;;;;5135805;27;20222;-77
2023/01/04 04:08:35;;;;;;;4.68;4.28;;;7.40;99.90;;;;;;5135238;27;20672;-77
2023/01/04 04:13:47;;;;;;;5.40;4.47;;;7.40;99.90;;;;;;5135656;27;20256;-79
2023/01/04 04:16:14;;;;;;;6.53;4.05;;;7.40;99.90;;;;;;5135107;27;20230;-79
2023/01/04 04:18:42;;;;;;;5.70;4.50;;;7.40;99.90;;;;;;5134144;27;20229;-79
2023/01/04 04:21:14;;;;;;;6.30;5.65;;;7.40;99.90;;;;;;5136217;27;20237;-76
2023/01/04 04:23:42;;;;;;;5.20;4.70;;;7.40;99.90;;;;;;5136697;27;20237;-77
2023/01/04 04:26:09;;;;;;;10.43;5.22;;;7.40;99.90;;;;;;5136079;27;20222;-76
2023/01/04 04:28:38;;;;;;;4.80;4.40;;;7.40;99.90;;;;;;5135614;27;20229;-78
2023/01/04 04:31:05;;;;;;;5.05;4.55;;;7.40;99.90;;;;;;5135102;27;20555;-78
2023/01/04 04:33:37;;;;;;;6.32;5.28;;;7.40;99.90;;;;;;5135196;27;20238;-78
2023/01/04 04:36:05;;;;;;;5.55;4.80;;;7.40;99.90;;;;;;5134797;27;20263;-78
2023/01/04 04:38:32;;;;;;;6.00;4.55;;;7.50;99.90;;;;;;5135156;27;20703;-78
2023/01/04 04:43:49;;;;;;;5.50;5.00;;;7.40;99.90;;;;;;5103002;27;20221;-78
2023/01/04 04:46:16;;;;;;;7.13;5.30;;;7.40;99.90;;;;;;5133646;27;20286;-79
2023/01/04 04:48:43;;;;;;;5.53;5.03;;;7.40;99.90;;;;;;5134432;27;20264;-79
2023/01/04 04:51:10;;;;;;;6.95;4.85;;;7.40;99.90;;;;;;5134108;27;20226;-78
2023/01/04 04:53:37;;;;;;;6.38;5.88;;;7.40;99.90;;;;;;5134668;27;20218;-78
2023/01/04 04:56:06;;;;;;;7.57;6.30;;;7.40;99.90;;;;;;5133743;27;20675;-78
2023/01/04 04:58:36;;;;;;;5.35;4.85;;;7.40;99.90;;;;;;5134112;27;20305;-78
2023/01/04 05:01:03;;;;;;;6.85;5.05;;;7.40;99.90;;;;;;5133081;27;20297;-78
2023/01/04 05:03:30;;;;;;;6.47;5.20;;;7.40;99.90;;;;;;5141240;27;20214;-78
2023/01/04 05:05:57;;;;;;;5.70;4.50;;;7.40;99.90;;;;;;5134091;27;20248;-77
2023/01/04 05:08:26;;;;;;;5.50;4.90;;;7.50;99.90;;;;;;5134392;27;20256;-78
2023/01/04 05:10:53;;;;;;;5.35;4.82;;;7.50;99.90;;;;;;5133923;27;20684;-80
2023/01/04 05:13:23;;;;;;;5.38;4.85;;;7.40;99.90;;;;;;5133349;27;20213;-79
2023/01/04 05:15:54;;;;;;;6.72;5.07;;;7.50;99.90;;;;;;5133773;27;20255;-80
2023/01/04 05:18:25;;;;;;;5.70;5.20;;;7.50;99.90;;;;;;5133863;27;20236;-80
2023/01/04 05:20:52;;;;;;;5.20;4.78;;;7.50;99.90;;;;;;5133929;27;20234;-80
2023/01/04 05:23:21;;;;;;;5.03;4.57;;;7.50;99.90;;;;;;5133323;27;20282;-80
2023/01/04 05:25:54;;;;;;;4.88;4.47;;;7.50;99.90;;;;;;5133962;27;20229;-78
2023/01/04 05:28:23;;;;;;;5.50;4.60;;;7.50;99.90;;;;;;5133488;27;20217;-80
2023/01/04 05:30:52;;;;;;;5.47;4.93;;;7.50;99.90;;;;;;5134471;27;20304;-79
2023/01/04 05:33:21;;;;;;;4.00;3.65;;;7.60;99.90;;;;;;5133519;27;20644;-79
2023/01/04 05:35:49;;;;;;;5.00;4.20;;;7.60;99.90;;;;;;5133814;27;20229;-78
2023/01/04 05:38:16;;;;;;;4.60;4.20;;;7.50;99.90;;;;;;5132839;27;20229;-78
2023/01/04 05:40:44;;;;;;;4.90;4.20;;;7.60;99.90;;;;;;5133770;27;20321;-78
2023/01/04 05:43:12;;;;;;;4.35;4.03;;;7.50;99.90;;;;;;5132987;27;20222;-78
2023/01/04 05:45:44;;;;;;;3.88;3.58;;;7.60;99.90;;;;;;5133911;27;20230;-78
2023/01/04 05:48:15;;;;;;;5.97;5.40;;;7.60;99.90;;;;;;5133190;27;20218;-78
2023/01/04 05:50:42;;;;;;;5.82;4.47;;;7.60;99.90;;;;;;5133861;27;20342;-78
2023/01/04 05:53:09;;;;;;;5.85;4.65;;;7.60;99.90;;;;;;5133482;27;20568;-78
2023/01/04 05:55:39;;;;;;;6.57;3.83;;;7.70;99.90;;;;;;5133949;27;20229;-80
2023/01/04 05:58:06;;;;;;;6.22;4.65;;;7.70;99.90;;;;;;5133207;27;20733;-78
2023/01/04 06:00:51;;;;;;;5.97;3.50;;;7.70;99.90;;;;;;5127680;27;20229;-78
2023/01/04 06:03:18;;;;;;;6.57;4.05;;;7.70;99.90;;;;;;5133244;27;20301;-80
2023/01/04 06:05:49;;;;;;;3.15;2.95;;;7.70;99.90;;;;;;5133262;27;20687;-80
2023/01/04 06:08:16;;;;;;;5.38;3.80;;;7.80;99.90;;;;;;5130330;27;20295;-78
2023/01/04 06:10:44;;;;;;;5.28;4.00;;;7.90;99.90;;;;;;5133918;27;20226;-78
2023/01/04 06:13:10;;;;;;;4.97;3.92;;;7.90;99.90;;;;;;5133316;27;20286;-77
2023/01/04 06:15:37;;;;;;;3.90;3.55;;;7.80;99.90;;;;;;5133200;27;20217;-77
2023/01/04 06:18:06;;;;;;;3.47;3.15;;;7.90;99.90;;;;;;5133801;27;20254;-77
2023/01/04 06:20:44;;;;;;;4.80;3.95;;;7.90;99.90;;;;;;5133086;27;20250;-77
2023/01/04 06:23:11;;;;;;;6.20;5.72;;;7.90;99.90;;;;;;5141066;27;20220;-77
2023/01/04 06:25:37;;;;;;;4.55;3.90;;;7.90;99.90;;;;;;5138019;27;20286;-78
2023/01/04 06:28:08;;;;;;;5.10;4.60;;;7.90;99.90;;;;;;5151506;27;20221;-79
2023/01/04 06:30:35;;;;;;;5.25;3.40;;;8.00;99.90;;;;;;5148960;27;20244;-79
2023/01/04 06:33:02;;;;;;;3.33;3.03;;;8.00;99.90;;;;;;5144169;27;20244;-77
2023/01/04 06:35:31;;;;;;;5.78;3.60;;;8.10;99.90;;;;;;5138133;27;20214;-77
2023/01/04 06:38:04;;;;;;;4.13;3.83;;;8.10;99.90;;;;;;5137829;27;20270;-77
2023/01/04 06:40:34;;;;;;;9.13;3.72;;;8.10;99.90;;;;;;5136635;27;20222;-77
2023/01/04 06:43:01;;;;;;;7.22;3.92;;;8.10;99.90;;;;;;5137007;27;20218;-79
2023/01/04 06:45:28;;;;;;;4.78;3.47;;;8.10;99.90;;;;;;5137243;27;20603;-78
2023/01/04 06:47:55;;;;;;;6.35;3.53;;;8.10;99.90;;;;;;5136929;27;20282;-77
2023/01/04 06:50:29;;;;;;;7.28;4.82;;;8.20;99.90;;;;;;5128964;27;20278;-79
2023/01/04 06:52:58;;;;;;;4.38;3.10;;;8.10;99.90;;;;;;5136106;27;20224;-79
2023/01/04 06:55:28;;;;;;;4.22;3.70;;;8.20;99.90;;;;;;5136554;27;20226;-80
2023/01/04 06:57:55;;;;;;;4.25;3.65;;;8.10;99.90;;;;;;5136320;27;20228;-80
2023/01/04 07:00:26;;;;;;;9.43;4.43;;;8.20;99.90;;;;;;5132773;27;20227;-80
2023/01/04 07:02:53;;;;;;;4.10;3.65;;;8.10;99.90;;;;;;5145337;27;20683;-78
2023/01/04 07:05:20;;;;;;;6.78;2.88;;;8.20;99.90;;;;;;5136540;27;20238;-79
2023/01/04 07:07:52;;;;;;;4.00;3.25;;;8.20;99.90;;;;;;5136047;27;20291;-80
2023/01/04 07:10:25;;;;;;;3.20;2.85;;;8.20;99.90;;;;;;5137007;27;20217;-79
2023/01/04 07:12:55;;;;;;;5.00;3.03;;;8.20;99.90;;;;;;5137222;27;20320;-79
2023/01/04 07:15:25;;;;;;;4.10;3.42;;;8.30;99.90;;;;;;5136276;27;20275;-77
2023/01/04 07:18:02;;;;;;;5.55;3.45;;;8.40;99.90;;;;;;5135953;27;20233;-78
2023/01/04 07:20:34;;;;;;;4.28;3.50;;;8.40;99.90;;;;;;5136554;27;20241;-79
2023/01/04 07:23:06;;;;;;;3.97;3.30;;;8.40;99.90;;;;;;5136007;27;20287;-79
2023/01/04 07:25:38;;;;;;;2.70;2.50;;;8.50;99.90;;;;;;5136607;27;20275;-79
2023/01/04 07:29:13;;;;;;;4.35;3.67;;;8.50;99.90;;;;;;5135618;27;20222;-78
2023/01/04 07:31:15;;;;;;;3.92;2.72;;;8.50;99.90;;;;;;5127058;27;20226;-78
2023/01/04 07:33:53;;;;;;;7.78;4.20;;;8.60;99.90;;;;;;5148764;27;20218;-79
2023/01/04 07:36:29;;;;;;;3.30;3.00;;;8.50;99.90;;;;;;5135243;27;20217;-79
2023/01/04 07:38:55;;;;;;;4.72;2.88;;;8.50;99.90;;;;;;5135699;27;20275;-78
2023/01/04 07:41:24;;;;;;;7.57;3.25;;;8.50;99.90;;;;;;5134538;27;20694;-78
2023/01/04 07:43:51;;;;;;;7.38;3.67;;;8.60;99.90;;;;;;5135593;27;20255;-78
2023/01/04 07:46:21;;;;;;;9.10;3.75;;;8.50;99.90;;;;;;5135097;27;20648;-78
2023/01/04 07:48:48;;;;;;;4.03;2.60;;;8.50;99.90;;;;;;5135464;27;20376;-78
2023/01/04 07:51:21;;;;;;;5.47;2.90;;;8.50;99.90;;;;;;5134146;27;20318;-78
2023/01/04 07:53:48;;;;;;;7.78;5.88;;;8.50;99.90;;;;;;5135633;27;20230;-78
2023/01/04 07:56:15;;;;;;;8.23;6.05;;;8.50;99.90;;;;;;5134177;27;20301;-79
2023/01/04 07:58:45;;;;;;;10.98;7.63;;;8.50;99.90;;;;;;5130462;27;20240;-79
2023/01/04 08:01:14;;;;;;;6.68;3.17;;;8.40;99.90;;;;;;5134511;27;20264;-79
2023/01/04 08:03:43;;;;;;;5.82;3.47;;;8.40;99.90;;;;;;5129635;27;20225;-79
2023/01/04 08:06:14;;;;;;;4.80;3.15;;;8.40;99.90;;;;;;5146414;27;20222;-78
2023/01/04 08:08:48;;;;;;;5.35;2.70;;;8.40;99.90;;;;;;5127672;27;20592;-78
2023/01/04 08:11:17;;;;;;;2.80;2.58;;;8.40;99.90;;;;;;5139171;27;20332;-78
2023/01/04 08:13:50;;;;;;;3.10;2.80;;;8.40;99.90;;;;;;5140185;27;20286;-78
2023/01/04 08:16:21;;;;;;;5.40;3.42;;;8.50;99.90;;;;;;5134082;27;20222;-78
2023/01/04 08:18:53;;;;;;;3.88;2.10;;;8.60;99.90;;;;;;5138713;27;20225;-78
2023/01/04 08:21:20;;;;;;;9.40;2.97;;;8.50;99.90;;;;;;5134833;27;20565;-78
2023/01/04 08:23:53;;;;;;;3.72;2.83;;;8.50;99.90;;;;;;5134367;27;20557;-77
2023/01/04 08:26:24;;;;;;;4.40;3.30;;;8.50;99.90;;;;;;5134313;27;20232;-78
2023/01/04 08:28:53;;;;;;;7.47;4.75;;;8.50;99.90;;;;;;5134825;27;20218;-78
2023/01/04 08:31:24;;;;;;;4.60;3.22;;;8.60;99.90;;;;;;5134686;27;20245;-78
2023/01/04 08:33:51;;;;;;;4.20;2.40;;;8.50;99.90;;;;;;5140727;27;20291;-78
2023/01/04 08:36:22;;;;;;;5.20;2.63;;;8.50;99.90;;;;;;5138049;27;20222;-78
2023/01/04 08:38:57;;;;;;;10.93;6.10;;;8.50;99.90;;;;;;5137550;27;20233;-78
2023/01/04 08:41:24;;;;;;;8.05;6.10;;;8.50;99.90;;;;;;5133259;27;20217;-78
2023/01/04 08:44:05;;;;;;;6.45;5.30;;;8.50;99.90;;;;;;5134704;27;20222;-78
2023/01/04 08:46:32;;;;;;;8.75;6.45;;;8.50;99.90;;;;;;5134707;27;20225;-78
2023/01/04 08:48:59;;;;;;;6.05;4.10;;;8.40;99.90;;;;;;5139412;27;20236;-80
2023/01/04 08:51:26;;;;;;;8.15;6.53;;;8.40;99.90;;;;;;5133693;27;20304;-79
2023/01/04 08:53:53;;;;;;;6.53;5.22;;;8.50;99.90;;;;;;5134439;27;20928;-79
2023/01/04 08:56:23;;;;;;;10.57;6.30;;;8.50;99.90;;;;;;5125604;27;20274;-79
2023/01/04 08:58:50;;;;;;;4.75;4.15;;;8.50;99.90;;;;;;5134463;27;20614;-80
2023/01/04 09:01:18;;;;;;;4.80;4.15;;;8.50;99.90;;;;;;5134192;27;20238;-78
2023/01/04 09:03:45;;;;;;;5.60;2.83;;;8.60;99.90;;;;;;5133628;27;20729;-78
2023/01/04 09:06:14;;;;;;;5.75;3.60;;;8.60;99.90;;;;;;5134552;27;20305;-80
2023/01/04 09:08:43;;;;;;;4.35;3.13;;;8.60;99.90;;;;;;5132859;27;20246;-78
2023/01/04 09:11:14;;;;;;;4.93;3.20;;;8.60;99.90;;;;;;5134544;27;20214;-77
2023/01/04 09:13:41;;;;;;;5.88;3.30;;;8.50;99.90;;;;;;5133327;27;20228;-77
2023/01/04 09:16:11;;;;;;;7.25;5.25;;;8.50;99.90;;;;;;5130403;27;20262;-77
2023/01/04 09:18:39;;;;;;;4.85;3.45;;;8.60;99.90;;;;;;5142578;27;20242;-77
2023/01/04 09:21:08;;;;;;;3.35;3.05;;;8.60;99.90;;;;;;5133620;27;20259;-79
2023/01/04 09:23:35;;;;;;;4.88;3.78;;;8.60;99.90;;;;;;5139792;27;20225;-79
2023/01/04 09:26:05;;;;;;;4.35;2.95;;;8.60;99.90;;;;;;5134017;27;20225;-78
2023/01/04 09:28:32;;;;;;;4.18;3.10;;;8.60;99.90;;;;;;5133055;27;20228;-79
2023/01/04 09:31:04;;;;;;;5.32;3.80;;;8.60;99.90;;;;;;5133817;27;20309;-79
2023/01/04 09:33:33;;;;;;;5.03;4.20;;;8.70;99.90;;;;;;5133976;27;20214;-79
2023/01/04 09:36:07;;;;;;;5.32;3.20;;;8.70;99.90;;;;;;5134006;27;20538;-78
2023/01/04 09:38:35;;;;;;;5.40;4.05;;;8.70;99.90;;;;;;5133361;27;20222;-77
2023/01/04 09:41:15;;;;;;;4.32;3.85;;;8.80;99.90;;;;;;5133949;27;20256;-77
2023/01/04 09:43:48;;;;;;;6.30;4.32;;;8.80;99.90;;;;;;5133298;27;20698;-77
2023/01/04 09:46:20;;;;;;;8.35;5.10;;;8.80;99.90;;;;;;5134030;27;20214;-77
2023/01/04 09:48:55;;;;;;;3.72;3.35;;;8.70;99.90;;;;;;5132692;27;20249;-77
2023/01/04 09:51:29;;;;;;;11.52;6.40;;;8.70;99.90;;;;;;5133154;27;20304;-77
2023/01/04 09:54:02;;;;;;;5.10;3.75;;;8.70;99.90;;;;;;5133543;27;20246;-78
2023/01/04 09:56:35;;;;;;;5.47;4.40;;;8.80;99.90;;;;;;5134279;27;20222;-77
2023/01/04 09:59:07;;;;;;;4.82;3.70;;;8.80;99.90;;;;;;5132989;27;20230;-77
2023/01/04 10:01:44;;;;;;;6.60;4.57;;;8.80;99.90;;;;;;5133771;27;20233;-77
2023/01/04 10:04:26;;;;;;;8.90;7.35;;;8.80;99.90;;;;;;5136665;27;20325;-77
2023/01/04 10:06:57;;;;;;;13.82;8.43;;;8.80;99.90;;;;;;5137696;27;20244;-79
2023/01/04 10:09:24;;;;;;;10.63;5.97;;;8.90;99.90;;;;;;5137673;27;20322;-78
2023/01/04 10:12:16;;;;;;;8.15;7.03;;;8.90;99.90;;;;;;5137489;27;20300;-79
2023/01/04 10:15:00;;;;;;;7.70;5.05;;;8.90;99.90;;;;;;5136719;27;20245;-78
2023/01/04 10:17:42;;;;;;;5.90;3.95;;;8.90;99.90;;;;;;5138131;27;20313;-77
2023/01/04 10:20:29;;;;;;;3.88;3.60;;;8.90;99.90;;;;;;5137671;27;20298;-77
2023/01/04 10:23:08;;;;;;;7.20;4.60;;;8.90;99.90;;;;;;5128812;27;20312;-77
2023/01/04 10:25:46;;;;;;;3.90;3.20;;;8.90;99.90;;;;;;5138410;27;20248;-77
2023/01/04 10:28:35;;;;;;;6.20;4.32;;;9.00;99.90;;;;;;5140937;27;20290;-78
2023/01/04 10:31:10;;;;;;;5.28;4.78;;;9.00;99.90;;;;;;5135978;27;20237;-77
2023/01/04 10:33:48;;;;;;;5.22;4.82;;;9.00;99.90;;;;;;5142797;27;20221;-77
2023/01/04 10:36:21;;;;;;;4.50;4.10;;;9.00;99.90;;;;;;5137011;27;20235;-78
2023/01/04 10:38:59;;;;;;;4.50;3.83;;;9.00;99.90;;;;;;5142231;27;20233;-77
2023/01/04 10:41:29;;;;;;;4.95;4.15;;;9.00;99.90;;;;;;5131301;27;20210;-79
2023/01/04 10:44:27;;;;;;;;;;;;;;;;;;;;;
2023/01/04 10:47:04;;;;;;;4.10;3.70;;;9.00;99.90;;;;;;5135872;27;20228;-77
2023/01/04 10:49:41;;;;;;;6.20;4.00;;;9.00;99.90;;;;;;5134571;27;20225;-77
2023/01/04 10:52:13;;;;;;;4.28;3.85;;;9.00;99.90;;;;;;5135809;27;20236;-77
2023/01/04 10:54:46;;;;;;;5.35;4.00;;;9.00;99.90;;;;;;5123651;27;20222;-77
2023/01/04 10:57:21;;;;;;;4.05;3.67;;;9.00;99.90;;;;;;5126455;27;20233;-77
2023/01/04 11:00:00;;;;;;;6.00;3.45;;;9.00;99.90;;;;;;5128839;27;20622;-77
2023/01/04 11:02:35;;;;;;;10.63;4.53;;;9.00;99.90;;;;;;5126688;27;20235;-76
2023/01/04 11:05:12;;;;;;;3.47;3.17;;;9.00;99.90;;;;;;5128514;27;20205;-77
2023/01/04 11:07:45;;;;;;;8.57;4.43;;;9.10;99.90;;;;;;5128985;27;20493;-77
2023/01/04 11:10:19;;;;;;;4.75;4.35;;;9.10;99.90;;;;;;5128328;27;20230;-78
2023/01/04 11:12:48;;;;;;;9.20;7.15;;;9.20;99.90;;;;;;5123675;27;20300;-77
2023/01/04 11:15:15;;;;;;;3.67;3.45;;;9.20;99.90;;;;;;5125415;27;20556;-77
2023/01/04 11:17:43;;;;;;;8.93;5.70;;;9.20;99.90;;;;;;5129875;27;20512;-79
2023/01/04 11:20:11;;;;;;;8.57;4.35;;;9.20;99.90;;;;;;5129241;27;20227;-79
2023/01/04 11:22:44;;;;;;;5.25;3.83;;;9.20;99.90;;;;;;5119393;27;20626;-79
2023/01/04 11:25:36;;;;;;;8.38;5.93;;;9.20;99.90;;;;;;5127186;27;20615;-79
2023/01/04 11:28:14;;;;;;;7.10;4.32;;;9.20;99.90;;;;;;5123765;27;20301;-79
2023/01/04 11:30:48;;;;;;;3.92;3.42;;;9.20;99.90;;;;;;5127285;27;20229;-79
2023/01/04 11:33:20;;;;;;;5.32;3.65;;;9.30;99.90;;;;;;5129986;27;20248;-79
2023/01/04 11:35:51;;;;;;;4.22;3.92;;;9.30;99.90;;;;;;5132732;27;20647;-79
2023/01/04 11:38:21;;;;;;;7.88;4.68;;;9.30;99.90;;;;;;5130128;27;20275;-79
2023/01/04 11:41:04;;;;;;;3.00;2.70;;;9.30;99.90;;;;;;5125473;27;20222;-79
2023/01/04 11:43:32;;;;;;;5.80;3.25;;;9.40;99.90;;;;;;5127761;27;20254;-78
2023/01/04 11:46:02;;;;;;;4.90;3.50;;;9.30;99.90;;;;;;5123839;27;20218;-78
2023/01/04 11:48:39;;;;;;;7.30;3.53;;;9.40;99.90;;;;;;5111542;27;20721;-81
2023/01/04 11:51:17;;;;;;;5.63;2.78;;;9.40;99.90;;;;;;5125493;27;20237;-82
2023/01/04 11:53:45;;;;;;;7.70;5.80;;;9.40;99.90;;;;;;5118355;27;20298;-82
2023/01/04 11:56:18;;;;;;;7.22;6.40;;;9.40;99.90;;;;;;5105206;27;20255;-82
2023/01/04 11:59:06;;;;;;;7.70;5.45;;;9.50;99.90;;;;;;5126781;27;20251;-82
2023/01/04 12:01:36;;;;;;;7.70;4.68;;;9.60;99.90;;;;;;5123449;27;20683;-82
2023/01/04 12:04:09;;;;;;;9.00;7.18;;;9.60;99.90;;;;;;5121904;27;20336;-81
2023/01/04 12:06:41;;;;;;;3.60;3.25;;;9.70;99.90;;;;;;5131655;27;20282;-81
2023/01/04 12:09:14;;;;;;;2.75;2.55;;;9.60;99.90;;;;;;5129110;27;20218;-82
2023/01/04 12:11:45;;;;;;;4.28;3.88;;;9.70;99.90;;;;;;5125772;27;20224;-82
2023/01/04 12:14:20;;;;;;;3.15;2.78;;;9.70;99.90;;;;;;5117503;27;20218;-80
2023/01/04 12:16:52;;;;;;;3.35;3.05;;;9.70;99.90;;;;;;5132537;27;20303;-82
2023/01/04 12:19:21;;;;;;;5.38;4.88;;;9.80;99.90;;;;;;5123959;27;20253;-82
2023/01/04 12:21:51;;;;;;;4.03;3.17;;;9.80;99.90;;;;;;5126715;27;20301;-82
2023/01/04 12:24:22;;;;;;;4.68;3.90;;;9.80;99.90;;;;;;5126288;27;20276;-82
2023/01/04 12:26:54;;;;;;;4.30;3.60;;;9.80;99.90;;;;;;5122649;27;20218;-80
2023/01/04 12:29:53;;;;;;;3.05;2.75;;;9.80;99.90;;;;;;5122354;27;20228;-82
2023/01/04 12:32:44;;;;;;;7.22;6.18;;;9.80;99.90;;;;;;5122374;27;20210;-82
2023/01/04 12:35:57;;;;;;;5.82;5.20;;;9.80;99.90;;;;;;5138651;27;20214;-82
2023/01/04 12:39:01;;;;;;;4.78;3.80;;;9.80;99.90;;;;;;5122306;27;20231;-83
2023/01/04 12:42:14;;;;;;;3.50;3.17;;;9.80;99.90;;;;;;5133298;27;25017;-83
2023/01/04 12:45:02;;;;;;;4.70;3.17;;;9.80;99.90;;;;;;5107261;28;20222;-82
2023/01/04 12:50:29;;;;;;;6.55;5.88;;;9.80;99.90;;;;;;5132009;27;20232;-80
2023/01/04 12:52:59;;;;;;;5.03;4.55;;;9.90;99.90;;;;;;5123789;27;20217;-80
2023/01/04 12:55:54;;;;;;;3.50;3.15;;;9.80;99.90;;;;;;5133490;27;20352;-80
2023/01/04 12:59:05;;;;;;;4.40;4.00;;;9.80;99.90;;;;;;5130886;27;20214;-80
2023/01/04 13:01:34;;;;;;;4.60;3.63;;;9.80;99.90;;;;;;5128368;27;20245;-82
2023/01/04 13:04:04;;;;;;;4.82;4.40;;;9.80;99.90;;;;;;5134277;27;20663;-83
2023/01/04 13:06:34;;;;;;;5.93;3.90;;;9.80;99.90;;;;;;5124216;27;20218;-83
2023/01/04 13:09:02;;;;;;;7.57;3.88;;;9.70;99.90;;;;;;5123374;27;20249;-83
2023/01/04 13:12:04;;;;;;;6.38;5.78;;;9.80;99.90;;;;;;5120845;27;20306;-80
2023/01/04 13:14:39;;;;;;;5.47;4.97;;;9.70;99.90;;;;;;5056444;27;20270;-82
2023/01/04 13:17:17;;;;;;;3.90;3.60;;;9.70;99.90;;;;;;5122002;27;20241;-79
2023/01/04 13:19:45;;;;;;;4.20;3.80;;;9.70;99.90;;;;;;5124113;27;20313;-79
2023/01/04 13:22:24;;;;;;;7.82;6.72;;;9.70;99.90;;;;;;5124527;27;20219;-82
2023/01/04 13:24:52;;;;;;;9.10;5.30;;;9.80;99.90;;;;;;5122980;27;20217;-79
2023/01/04 13:27:22;;;;;;;3.38;2.88;;;9.80;99.90;;;;;;5129310;27;20285;-82
2023/01/04 13:29:52;;;;;;;2.60;2.40;;;9.80;99.90;;;;;;5120583;27;20226;-79
2023/01/04 13:32:26;;;;;;;3.30;3.05;;;9.80;99.90;;;;;;5126900;27;20305;-83
2023/01/04 13:34:58;;;;;;;3.13;2.90;;;9.80;99.90;;;;;;5119908;27;20721;-79
2023/01/04 13:37:32;;;;;;;4.72;3.55;;;9.70;99.90;;;;;;5120191;27;20221;-80
2023/01/04 13:40:24;;;;;;;4.10;3.00;;;9.80;99.90;;;;;;5129827;27;20228;-79
2023/01/04 13:43:01;;;;;;;8.82;8.00;;;9.80;99.90;;;;;;5121581;27;20243;-80
2023/01/04 13:45:51;;;;;;;4.57;4.05;;;9.80;99.90;;;;;;5113817;28;20249;-82
2023/01/04 13:48:26;;;;;;;4.43;4.03;;;9.80;99.90;;;;;;5131741;27;20220;-81
2023/01/04 13:51:02;;;;;;;4.97;4.47;;;9.90;99.90;;;;;;5128957;27;20230;-79
2023/01/04 13:53:32;;;;;;;4.97;3.80;;;9.90;99.90;;;;;;5126616;27;20205;-79
2023/01/04 13:56:01;;;;;;;3.53;3.22;;;9.90;99.90;;;;;;5127958;27;20237;-82
2023/01/04 13:58:30;;;;;;;6.35;3.20;;;9.90;99.90;;;;;;5125579;27;20225;-82
2023/01/04 14:01:08;;;;;;;6.45;4.30;;;10.00;99.90;;;;;;5125184;27;20226;-82
2023/01/04 14:03:43;;;;;;;3.13;2.92;;;10.10;99.90;;;;;;5123367;27;20252;-82
2023/01/04 14:06:21;;;;;;;12.02;8.77;;;10.10;99.90;;;;;;5123147;28;20593;-81
2023/01/04 14:08:59;;;;;;;10.13;9.02;;;10.10;99.90;;;;;;5121017;28;20686;-82
2023/01/04 14:14:48;;;;;;;4.25;3.95;;;10.20;99.90;;;;;;5102397;27;20219;-80
2023/01/04 14:17:29;;;;;;;4.78;3.03;;;10.20;99.90;;;;;;5113259;27;20583;-82
2023/01/04 14:20:01;;;;;;;4.03;3.72;;;10.20;99.90;;;;;;5121150;27;20264;-81